createdAt,value
2023-02-23T00:01:54.600Z,1.38
2023-02-23T00:04:23.586Z,1.35
2023-02-23T00:06:53.631Z,1.30
2023-02-23T00:09:24.084Z,1.28
2023-02-23T00:11:53.253Z,1.27
2023-02-23T00:14:20.600Z,1.25
2023-02-23T00:16:47.313Z,1.26
2023-02-23T00:19:14.117Z,1.26
2023-02-23T00:21:41.773Z,1.27
2023-02-23T00:24:10.985Z,1.28
2023-02-23T00:26:39.510Z,1.24
2023-02-23T00:29:09.436Z,1.26
2023-02-23T00:31:38.707Z,1.26
2023-02-23T00:34:06.095Z,1.22
2023-02-23T00:36:34.599Z,1.19
2023-02-23T00:39:17.342Z,1.19
2023-02-23T00:41:46.459Z,1.18
2023-02-23T00:44:15.353Z,1.14
2023-02-23T00:46:43.653Z,1.11
2023-02-23T00:49:12.913Z,1.10
2023-02-23T00:51:40.010Z,1.07
2023-02-23T00:54:08.049Z,1.05
2023-02-23T00:56:34.982Z,1.06
2023-02-23T00:59:01.833Z,1.04
2023-02-23T01:01:28.451Z,1.03
2023-02-23T01:03:55.006Z,1.02
2023-02-23T01:06:22.469Z,1.00
2023-02-23T01:08:52.138Z,0.98
2023-02-23T01:11:21.284Z,0.94
2023-02-23T01:13:50.073Z,0.90
2023-02-23T01:16:18.961Z,0.88
2023-02-23T01:18:46.279Z,0.85
2023-02-23T01:21:22.927Z,0.81
2023-02-23T01:23:51.117Z,0.80
2023-02-23T01:26:23.439Z,0.78
2023-02-23T01:28:51.270Z,0.74
2023-02-23T01:31:19.103Z,0.75
2023-02-23T01:33:46.155Z,0.76
2023-02-23T01:36:13.336Z,0.75
2023-02-23T01:38:41.169Z,0.76
2023-02-23T01:41:09.131Z,0.74
2023-02-23T01:43:54.317Z,0.74
2023-02-23T01:46:20.958Z,0.73
2023-02-23T01:48:48.688Z,0.71
2023-02-23T01:51:22.846Z,0.70
2023-02-23T01:54:00.186Z,0.70
2023-02-23T01:56:31.920Z,0.68
2023-02-23T01:59:01.873Z,0.67
2023-02-23T02:01:30.245Z,0.67
2023-02-23T02:04:00.355Z,0.64
2023-02-23T02:06:28.868Z,0.62
2023-02-23T02:08:59.986Z,0.59
2023-02-23T02:11:30.837Z,0.60
2023-02-23T02:14:03.790Z,0.61
2023-02-23T02:16:42.478Z,0.61
2023-02-23T02:19:18.716Z,0.59
2023-02-23T02:22:04.882Z,0.58
2023-02-23T02:25:12.753Z,0.51
2023-02-23T02:27:51.473Z,0.49
2023-02-23T02:30:46.263Z,0.45
2023-02-23T02:33:53.623Z,0.42
2023-02-23T02:36:51.008Z,0.36
2023-02-23T02:39:35.667Z,0.29
2023-02-23T02:42:43.726Z,0.26
2023-02-23T02:45:27.134Z,0.22
2023-02-23T02:48:18.405Z,0.22
2023-02-23T02:50:50.733Z,0.22
2023-02-23T02:53:33.934Z,0.18
2023-02-23T02:56:05.483Z,0.15
2023-02-23T02:58:33.590Z,0.12
2023-02-23T03:01:26.580Z,0.08
2023-02-23T03:04:12.173Z,0.05
2023-02-23T03:07:23.034Z,-0.01
2023-02-23T03:10:16.911Z,-0.06
2023-02-23T03:13:14.020Z,-0.06
2023-02-23T03:16:08.351Z,-0.08
2023-02-23T03:19:12.146Z,-0.14
2023-02-23T03:22:12.196Z,-0.20
2023-02-23T03:25:15.697Z,-0.20
2023-02-23T03:28:10.775Z,-0.26
2023-02-23T03:31:06.932Z,-0.27
2023-02-23T03:34:03.457Z,-0.27
2023-02-23T03:36:55.224Z,-0.29
2023-02-23T03:39:48.998Z,-0.31
2023-02-23T03:42:38.580Z,-0.35
2023-02-23T03:45:29.985Z,-0.37
2023-02-23T03:48:18.265Z,-0.42
2023-02-23T03:51:10.746Z,-0.40
2023-02-23T03:54:08.212Z,-0.42
2023-02-23T03:56:57.184Z,-0.47
2023-02-23T03:59:48.656Z,-0.46
2023-02-23T04:02:36.948Z,-0.48
2023-02-23T04:05:29.389Z,-0.50
2023-02-23T04:08:17.244Z,-0.50
2023-02-23T04:11:10.392Z,-0.51
2023-02-23T04:13:40.201Z,-0.53
2023-02-23T04:16:11.477Z,-0.54
2023-02-23T04:18:39.707Z,-0.55
2023-02-23T04:21:07.261Z,-0.56
2023-02-23T04:23:35.058Z,-0.58
2023-02-23T04:26:01.732Z,-0.60
2023-02-23T04:28:29.488Z,-0.58
2023-02-23T04:30:56.225Z,-0.60
2023-02-23T04:33:24.977Z,-0.61
2023-02-23T04:35:53.923Z,-0.63
2023-02-23T04:38:21.106Z,-0.60
2023-02-23T04:40:47.948Z,-0.62
2023-02-23T04:43:15.072Z,-0.60
2023-02-23T04:45:42.178Z,-0.59
2023-02-23T04:48:08.792Z,-0.59
2023-02-23T04:50:35.766Z,-0.59
2023-02-23T04:53:02.345Z,-0.58
2023-02-23T04:55:29.039Z,-0.55
2023-02-23T04:58:01.270Z,-0.56
2023-02-23T05:00:29.461Z,-0.55
2023-02-23T05:02:57.200Z,-0.55
2023-02-23T05:05:23.817Z,-0.54
2023-02-23T05:07:50.360Z,-0.55
2023-02-23T05:10:17.056Z,-0.54
2023-02-23T05:12:43.643Z,-0.55
2023-02-23T05:15:11.142Z,-0.53
2023-02-23T05:17:42.054Z,-0.54
2023-02-23T05:20:13.780Z,-0.51
2023-02-23T05:22:40.724Z,-0.50
2023-02-23T05:25:08.769Z,-0.57
2023-02-23T05:27:35.329Z,-0.58
2023-02-23T05:30:02.637Z,-0.61
2023-02-23T05:32:29.662Z,-0.61
2023-02-23T05:34:56.532Z,-0.60
2023-02-23T05:37:23.080Z,-0.62
2023-02-23T05:39:49.763Z,-0.62
2023-02-23T05:42:16.313Z,-0.61
2023-02-23T05:44:42.856Z,-0.60
2023-02-23T05:47:09.457Z,-0.63
2023-02-23T05:49:36.096Z,-0.66
2023-02-23T05:52:02.917Z,-0.67
2023-02-23T05:54:29.460Z,-0.77
2023-02-23T05:56:55.983Z,-0.80
2023-02-23T05:59:22.516Z,-0.81
2023-02-23T06:01:49.089Z,-0.78
2023-02-23T06:04:17.273Z,-0.76
2023-02-23T06:06:43.936Z,-0.74
2023-02-23T06:09:10.567Z,-0.76
2023-02-23T06:11:37.127Z,-0.73
2023-02-23T06:14:03.711Z,-0.65
2023-02-23T06:16:30.818Z,-0.67
2023-02-23T06:18:57.373Z,-0.69
2023-02-23T06:21:25.098Z,-0.70
2023-02-23T06:23:52.464Z,-0.65
2023-02-23T06:26:19.102Z,-0.59
2023-02-23T06:28:45.637Z,-0.51
2023-02-23T06:31:12.255Z,-0.45
2023-02-23T06:33:38.890Z,-0.41
2023-02-23T06:36:05.699Z,-0.37
2023-02-23T06:38:32.338Z,-0.39
2023-02-23T06:40:58.896Z,-0.40
2023-02-23T06:43:25.423Z,-0.40
2023-02-23T06:45:52.015Z,-0.36
2023-02-23T06:48:18.544Z,-0.34
2023-02-23T06:50:45.119Z,-0.32
2023-02-23T06:53:11.648Z,-0.30
2023-02-23T06:55:38.220Z,-0.24
2023-02-23T06:58:07.202Z,-0.14
2023-02-23T07:00:33.949Z,-0.12
2023-02-23T07:03:00.505Z,0.04
2023-02-23T07:05:27.363Z,0.15
2023-02-23T07:07:53.996Z,0.10
2023-02-23T07:10:20.867Z,0.06
2023-02-23T07:12:47.411Z,0.02
2023-02-23T07:15:17.785Z,0.03
2023-02-23T07:17:46.144Z,0.04
2023-02-23T07:20:13.185Z,0.15
2023-02-23T07:22:40.046Z,0.25
2023-02-23T07:25:07.424Z,0.33
2023-02-23T07:27:34.508Z,0.38
2023-02-23T07:30:03.405Z,0.61
2023-02-23T07:32:30.357Z,0.89
2023-02-23T07:34:56.928Z,1.04
2023-02-23T07:37:23.457Z,1.08
2023-02-23T07:39:50.053Z,1.23
2023-02-23T07:42:16.591Z,1.27
2023-02-23T07:44:43.101Z,1.42
2023-02-23T07:47:09.665Z,1.55
2023-02-23T07:49:36.210Z,1.65
2023-02-23T07:52:03.003Z,1.79
2023-02-23T07:54:29.516Z,2.03
2023-02-23T07:56:56.315Z,2.27
2023-02-23T07:59:22.940Z,2.47
2023-02-23T08:01:49.441Z,2.41
2023-02-23T08:04:16.055Z,2.48
2023-02-23T08:06:42.616Z,2.40
2023-02-23T08:09:10.683Z,2.37
2023-02-23T08:11:37.731Z,2.44
2023-02-23T08:14:04.300Z,2.68
2023-02-23T08:16:32.890Z,2.79
2023-02-23T08:19:00.852Z,2.79
2023-02-23T08:21:29.508Z,2.89
2023-02-23T08:23:57.464Z,3.04
2023-02-23T08:26:25.402Z,3.29
2023-02-23T08:28:53.117Z,3.47
2023-02-23T08:31:22.874Z,3.72
2023-02-23T08:33:50.024Z,3.72
2023-02-23T08:36:16.664Z,3.57
2023-02-23T08:38:43.343Z,3.61
2023-02-23T08:41:09.940Z,3.67
2023-02-23T08:43:37.472Z,3.89
2023-02-23T08:46:04.123Z,4.05
2023-02-23T08:48:30.709Z,3.99
2023-02-23T08:50:58.890Z,3.96
2023-02-23T08:53:29.642Z,3.89
2023-02-23T08:55:58.478Z,3.87
2023-02-23T08:58:25.117Z,3.89
2023-02-23T09:00:51.751Z,4.00
2023-02-23T09:03:18.324Z,4.30
2023-02-23T09:05:45.203Z,4.53
2023-02-23T09:08:13.760Z,4.64
2023-02-23T09:10:40.892Z,4.76
2023-02-23T09:13:07.426Z,4.56
2023-02-23T09:15:34.065Z,4.14
2023-02-23T09:18:03.528Z,4.03
2023-02-23T09:20:30.304Z,3.84
2023-02-23T09:22:56.872Z,3.87
2023-02-23T09:25:23.871Z,4.03
2023-02-23T09:27:53.751Z,4.26
2023-02-23T09:30:22.229Z,4.30
2023-02-23T09:32:50.270Z,4.49
2023-02-23T09:35:18.623Z,4.52
2023-02-23T09:37:47.817Z,4.68
2023-02-23T09:40:24.085Z,4.86
2023-02-23T09:43:09.124Z,4.58
2023-02-23T09:45:43.753Z,4.77
2023-02-23T09:48:16.791Z,4.67
2023-02-23T09:50:55.132Z,4.83
2023-02-23T09:53:29.251Z,4.95
2023-02-23T09:55:58.520Z,5.02
2023-02-23T09:58:30.924Z,5.07
2023-02-23T10:01:25.510Z,5.00
2023-02-23T10:04:32.444Z,4.94
2023-02-23T10:06:59.232Z,5.02
2023-02-23T10:09:31.879Z,4.89
2023-02-23T10:12:13.612Z,4.89
2023-02-23T10:14:55.557Z,5.26
2023-02-23T10:17:42.592Z,5.06
2023-02-23T10:20:24.840Z,5.17
2023-02-23T10:22:52.639Z,5.37
2023-02-23T10:25:27.174Z,5.54
2023-02-23T10:27:55.765Z,5.63
2023-02-23T10:30:32.285Z,5.49
2023-02-23T10:33:13.627Z,5.68
2023-02-23T10:35:40.428Z,5.81
2023-02-23T10:38:14.548Z,5.87
2023-02-23T10:40:41.771Z,6.00
2023-02-23T10:43:12.605Z,6.14
2023-02-23T10:45:47.305Z,6.41
2023-02-23T10:48:31.900Z,6.69
2023-02-23T10:51:02.866Z,6.71
2023-02-23T10:53:37.690Z,6.40
2023-02-23T10:56:13.897Z,6.25
2023-02-23T10:58:46.432Z,6.25
2023-02-23T11:01:16.759Z,6.17
2023-02-23T11:04:05.354Z,6.22
2023-02-23T11:06:39.613Z,6.28
2023-02-23T11:09:44.548Z,6.36
2023-02-23T11:12:36.684Z,6.50
2023-02-23T11:15:35.249Z,6.57
2023-02-23T11:18:06.856Z,6.51
2023-02-23T11:20:44.345Z,6.63
2023-02-23T11:23:31.373Z,6.81
2023-02-23T11:26:01.647Z,6.94
2023-02-23T11:28:37.332Z,7.09
2023-02-23T11:31:29.345Z,7.43
2023-02-23T11:33:57.401Z,7.51
2023-02-23T11:36:23.878Z,7.40
2023-02-23T11:39:16.246Z,7.16
2023-02-23T11:41:42.826Z,6.94
2023-02-23T11:44:22.569Z,6.81
2023-02-23T11:46:50.933Z,6.73
2023-02-23T11:49:27.482Z,6.68
2023-02-23T11:51:54.827Z,6.51
2023-02-23T11:54:33.467Z,6.44
2023-02-23T11:57:02.702Z,6.57
2023-02-23T11:59:29.902Z,6.83
2023-02-23T12:02:23.124Z,6.98
2023-02-23T12:05:06.250Z,7.29
2023-02-23T12:07:44.912Z,7.72
2023-02-23T12:10:46.336Z,8.06
2023-02-23T12:13:26.555Z,7.95
2023-02-23T12:16:11.869Z,7.78
2023-02-23T12:19:00.612Z,7.85
2023-02-23T12:21:45.224Z,7.90
2023-02-23T12:24:43.619Z,8.03
2023-02-23T12:27:15.960Z,8.18
2023-02-23T12:30:12.031Z,8.34
2023-02-23T12:32:55.123Z,8.97
2023-02-23T12:35:31.413Z,9.38
2023-02-23T12:38:12.053Z,9.86
2023-02-23T12:40:42.171Z,10.22
2023-02-23T12:43:19.683Z,10.48
2023-02-23T12:45:53.399Z,10.60
2023-02-23T12:48:31.698Z,10.75
2023-02-23T12:51:02.208Z,10.97
2023-02-23T12:53:34.116Z,10.96
2023-02-23T12:56:04.407Z,10.91
2023-02-23T12:58:53.551Z,11.25
2023-02-23T13:01:29.678Z,11.55
2023-02-23T13:04:26.417Z,11.78
2023-02-23T13:07:06.689Z,11.74
2023-02-23T13:09:33.138Z,11.64
2023-02-23T13:12:14.751Z,11.27
2023-02-23T13:15:21.494Z,11.11
2023-02-23T13:18:11.639Z,11.25
2023-02-23T13:20:40.770Z,11.42
2023-02-23T13:23:26.604Z,11.35
2023-02-23T13:26:31.162Z,11.30
2023-02-23T13:29:15.184Z,11.40
2023-02-23T13:31:43.466Z,11.31
2023-02-23T13:34:17.175Z,11.14
2023-02-23T13:36:45.896Z,11.01
2023-02-23T13:39:34.009Z,10.82
2023-02-23T13:42:28.081Z,10.51
2023-02-23T13:45:27.716Z,10.20
2023-02-23T13:48:04.704Z,9.87
2023-02-23T13:50:53.127Z,9.75
2023-02-23T13:53:51.753Z,9.52
2023-02-23T13:56:22.440Z,9.45
2023-02-23T13:58:58.472Z,9.48
2023-02-23T14:01:32.960Z,9.38
2023-02-23T14:04:03.038Z,9.41
2023-02-23T14:06:32.786Z,9.37
2023-02-23T14:09:18.307Z,9.44
2023-02-23T14:11:49.613Z,9.54
2023-02-23T14:14:37.179Z,9.52
2023-02-23T14:17:14.051Z,9.37
2023-02-23T14:20:06.701Z,9.28
2023-02-23T14:22:34.749Z,9.24
2023-02-23T14:25:32.266Z,9.29
2023-02-23T14:28:23.048Z,9.21
2023-02-23T14:31:03.424Z,9.10
2023-02-23T14:33:42.110Z,9.05
2023-02-23T14:36:33.367Z,9.08
2023-02-23T14:39:09.123Z,9.04
2023-02-23T14:41:52.696Z,9.08
2023-02-23T14:44:31.768Z,8.98
2023-02-23T14:47:08.950Z,8.87
2023-02-23T14:49:43.586Z,8.72
2023-02-23T14:52:19.745Z,8.63
2023-02-23T14:54:46.889Z,8.55
2023-02-23T14:57:19.735Z,8.44
2023-02-23T14:59:52.719Z,8.32
2023-02-23T15:02:24.322Z,8.19
2023-02-23T15:04:51.292Z,8.13
2023-02-23T15:07:31.006Z,8.02
2023-02-23T15:09:59.891Z,7.97
2023-02-23T15:12:29.918Z,7.96
2023-02-23T15:15:00.262Z,7.88
2023-02-23T15:17:32.912Z,7.84
2023-02-23T15:20:15.987Z,7.70
2023-02-23T15:22:46.803Z,7.62
2023-02-23T15:25:26.245Z,7.46
2023-02-23T15:27:53.177Z,7.39
2023-02-23T15:30:40.209Z,7.36
2023-02-23T15:33:14.322Z,7.27
2023-02-23T15:36:08.628Z,7.19
2023-02-23T15:38:50.753Z,7.17
2023-02-23T15:41:34.639Z,7.04
2023-02-23T15:44:13.436Z,6.90
2023-02-23T15:46:41.560Z,6.91
2023-02-23T15:49:12.473Z,6.87
2023-02-23T15:51:48.630Z,6.79
2023-02-23T15:54:29.712Z,6.73
2023-02-23T15:56:58.792Z,6.67
2023-02-23T15:59:31.181Z,6.49
2023-02-23T16:01:59.789Z,6.43
2023-02-23T16:04:32.515Z,6.45
2023-02-23T16:07:15.402Z,6.43
2023-02-23T16:09:53.168Z,6.24
2023-02-23T16:12:29.234Z,6.16
2023-02-23T16:14:59.725Z,6.01
2023-02-23T16:17:28.119Z,5.93
2023-02-23T16:20:11.325Z,5.90
2023-02-23T16:22:40.014Z,5.78
2023-02-23T16:25:11.534Z,5.81
2023-02-23T16:27:38.602Z,5.71
2023-02-23T16:30:23.524Z,5.67
2023-02-23T16:33:40.856Z,5.71
2023-02-23T16:36:10.068Z,5.64
2023-02-23T16:38:48.806Z,5.62
2023-02-23T16:41:22.907Z,5.55
2023-02-23T16:43:51.550Z,5.50
2023-02-23T16:46:19.365Z,5.53
2023-02-23T16:48:46.398Z,5.56
2023-02-23T16:51:18.471Z,5.54
2023-02-23T16:53:45.670Z,5.51
2023-02-23T16:56:22.789Z,5.51
2023-02-23T16:58:56.052Z,5.52
2023-02-23T17:01:23.114Z,5.50
2023-02-23T17:03:53.193Z,5.45
2023-02-23T17:06:21.434Z,5.43
2023-02-23T17:08:57.557Z,5.35
2023-02-23T17:11:25.406Z,5.30
2023-02-23T17:13:51.982Z,5.26
2023-02-23T17:16:18.863Z,5.22
2023-02-23T17:18:45.777Z,5.21
2023-02-23T17:21:14.383Z,5.16
2023-02-23T17:23:51.218Z,5.18
2023-02-23T17:26:20.621Z,5.16
2023-02-23T17:28:47.565Z,5.20
2023-02-23T17:31:16.257Z,5.18
2023-02-23T17:33:43.813Z,5.14
2023-02-23T17:36:13.393Z,5.11
2023-02-23T17:38:44.605Z,5.14
2023-02-23T17:41:16.192Z,5.20
2023-02-23T17:43:43.005Z,5.26
2023-02-23T17:46:10.560Z,5.26
2023-02-23T17:48:37.323Z,5.23
2023-02-23T17:51:08.343Z,5.30
2023-02-23T17:53:36.028Z,5.31
2023-02-23T17:56:02.679Z,5.25
2023-02-23T17:58:29.649Z,5.21
2023-02-23T18:00:57.692Z,5.22
2023-02-23T18:03:25.575Z,5.25
2023-02-23T18:05:52.863Z,5.24
2023-02-23T18:08:20.254Z,5.27
2023-02-23T18:10:51.944Z,5.29
2023-02-23T18:13:19.288Z,5.33
2023-02-23T18:15:50.097Z,5.32
2023-02-23T18:18:17.191Z,5.28
2023-02-23T18:21:02.785Z,5.23
2023-02-23T18:23:32.574Z,5.20
2023-02-23T18:26:14.532Z,5.18
2023-02-23T18:28:44.360Z,5.17
2023-02-23T18:31:23.988Z,5.13
2023-02-23T18:33:52.947Z,5.12
2023-02-23T18:36:37.595Z,5.10
2023-02-23T18:39:07.133Z,5.01
2023-02-23T18:41:33.874Z,4.93
2023-02-23T18:44:03.031Z,4.83
2023-02-23T18:46:29.754Z,4.79
2023-02-23T18:48:56.708Z,4.81
2023-02-23T18:51:25.106Z,4.80
2023-02-23T18:53:53.317Z,4.77
2023-02-23T18:56:25.150Z,4.69
2023-02-23T18:59:01.513Z,4.63
2023-02-23T19:01:31.189Z,4.61
2023-02-23T19:04:01.214Z,4.57
2023-02-23T19:06:28.688Z,4.52
2023-02-23T19:08:59.371Z,4.41
2023-02-23T19:11:28.612Z,4.37
2023-02-23T19:13:56.842Z,4.38
2023-02-23T19:16:24.824Z,4.37
2023-02-23T19:18:52.820Z,4.43
2023-02-23T19:21:23.442Z,4.43
2023-02-23T19:23:54.515Z,4.43
2023-02-23T19:26:21.396Z,4.43
2023-02-23T19:28:48.541Z,4.41
2023-02-23T19:31:21.093Z,4.36
2023-02-23T19:33:49.634Z,4.35
2023-02-23T19:36:19.888Z,4.34
2023-02-23T19:38:47.346Z,4.31
2023-02-23T19:41:17.457Z,4.28
2023-02-23T19:43:44.453Z,4.24
2023-02-23T19:46:13.680Z,4.20
2023-02-23T19:48:41.382Z,4.22
2023-02-23T19:51:12.432Z,4.22
2023-02-23T19:53:39.935Z,4.22
2023-02-23T19:56:12.314Z,4.22
2023-02-23T19:58:39.289Z,4.21
2023-02-23T20:01:08.012Z,4.17
2023-02-23T20:03:35.675Z,4.13
2023-02-23T20:06:05.769Z,4.11
2023-02-23T20:08:32.842Z,4.07
2023-02-23T20:11:00.478Z,4.05
2023-02-23T20:13:27.058Z,3.99
2023-02-23T20:16:20.581Z,3.98
2023-02-23T20:18:47.212Z,3.97
2023-02-23T20:21:20.079Z,3.94
2023-02-23T20:23:47.524Z,3.96
2023-02-23T20:26:18.649Z,3.95
2023-02-23T20:28:45.995Z,3.92
2023-02-23T20:31:18.242Z,3.90
2023-02-23T20:33:44.954Z,3.93
2023-02-23T20:36:12.189Z,3.93
2023-02-23T20:38:39.073Z,3.91
2023-02-23T20:41:06.188Z,3.93
2023-02-23T20:43:32.790Z,3.92
2023-02-23T20:46:02.887Z,3.91
2023-02-23T20:48:34.728Z,3.93
2023-02-23T20:51:01.877Z,3.90
2023-02-23T20:53:29.448Z,3.95
2023-02-23T20:55:56.318Z,3.98
2023-02-23T20:58:26.049Z,3.96
2023-02-23T21:00:54.702Z,3.94
2023-02-23T21:03:21.846Z,3.92
2023-02-23T21:05:49.071Z,3.92
2023-02-23T21:08:15.960Z,3.89
2023-02-23T21:10:42.558Z,3.83
2023-02-23T21:13:12.344Z,3.81
2023-02-23T21:15:40.502Z,3.77
2023-02-23T21:18:07.997Z,3.78
2023-02-23T21:20:35.387Z,3.76
2023-02-23T21:23:04.212Z,3.75
2023-02-23T21:25:31.028Z,3.74
2023-02-23T21:28:01.669Z,3.71
2023-02-23T21:30:28.690Z,3.71
2023-02-23T21:32:59.569Z,3.68
2023-02-23T21:35:26.326Z,3.66
2023-02-23T21:37:52.930Z,3.65
2023-02-23T21:40:21.090Z,3.62
2023-02-23T21:42:49.258Z,3.58
2023-02-23T21:45:17.166Z,3.58
2023-02-23T21:47:45.929Z,3.58
2023-02-23T21:50:15.663Z,3.59
2023-02-23T21:52:43.914Z,3.60
2023-02-23T21:55:23.461Z,3.58
2023-02-23T21:57:50.855Z,3.57
2023-02-23T22:00:19.065Z,3.56
2023-02-23T22:02:46.511Z,3.58
2023-02-23T22:05:15.240Z,3.59
2023-02-23T22:07:46.691Z,3.56
2023-02-23T22:10:13.262Z,3.57
2023-02-23T22:12:39.869Z,3.56
2023-02-23T22:15:07.203Z,3.54
2023-02-23T22:17:34.107Z,3.56
2023-02-23T22:20:00.979Z,3.55
2023-02-23T22:22:27.912Z,3.52
2023-02-23T22:24:54.517Z,3.51
2023-02-23T22:27:22.183Z,3.51
2023-02-23T22:29:48.912Z,3.51
2023-02-23T22:32:17.564Z,3.50
2023-02-23T22:34:44.317Z,3.50
2023-02-23T22:37:11.110Z,3.48
2023-02-23T22:39:41.634Z,3.46
2023-02-23T22:42:12.636Z,3.48
2023-02-23T22:44:39.297Z,3.46
2023-02-23T22:47:06.775Z,3.43
2023-02-23T22:49:34.728Z,3.49
2023-02-23T22:52:01.339Z,3.47
2023-02-23T22:54:27.951Z,3.45
2023-02-23T22:56:54.917Z,3.43
2023-02-23T22:59:21.524Z,3.43
2023-02-23T23:01:50.159Z,3.42
2023-02-23T23:04:17.244Z,3.42
2023-02-23T23:06:44.034Z,3.42
2023-02-23T23:09:12.330Z,3.40
2023-02-23T23:11:41.844Z,3.35
2023-02-23T23:14:10.345Z,3.26
2023-02-23T23:16:48.591Z,3.20
2023-02-23T23:19:24.773Z,3.17
2023-02-23T23:21:56.775Z,3.12
2023-02-23T23:24:24.749Z,3.14
2023-02-23T23:27:00.056Z,3.13
2023-02-23T23:29:32.398Z,3.13
2023-02-23T23:32:01.567Z,3.12
2023-02-23T23:34:28.347Z,3.11
2023-02-23T23:36:55.476Z,3.11
2023-02-23T23:39:23.581Z,3.10
2023-02-23T23:41:50.413Z,3.07
2023-02-23T23:44:22.707Z,3.04
2023-02-23T23:46:53.051Z,3.03
2023-02-23T23:49:22.964Z,3.04
2023-02-23T23:51:52.407Z,3.07
2023-02-23T23:54:26.886Z,3.05
2023-02-23T23:56:53.608Z,3.04
2023-02-23T23:59:22.803Z,3.07
